Charterhall, United Kingdom
Current Conditions -  °F | °C
As of 10:50 AM on Saturday 22 Nov 2014 (Local Time) from EGQM Reporting Station
Haze Haze  
Wind Chill: 43°   Ceiling: 400
Heat Index: 48°   Visibility: 2.6mi
Dew Point: 48°   Wind: 12mph
Humidity: 100%   Direction: 170°S
Pressure: 29.77"   Gusts: NA
Location:  55.7°N, 2.38°W
Report Text: EGQM 221050Z AUTO 17010KT 4300 BR BKN004/// SCT060/// 09/09 Q1008 RERA
Loading
Personal Weather Stations






























Interactive Weather Map New forecast layout! Learn more

10-Day Weather Forecast

Advertisements
Track Severe Weather on mobile